createdAt,value
2018-12-12T00:21:36.472Z,8.17
2018-12-12T00:27:09.151Z,9.10
2018-12-12T00:29:49.597Z,9.23
2018-12-12T00:38:14.544Z,9.80
2018-12-12T00:40:54.943Z,9.00
2018-12-12T01:41:14.985Z,6.10
2018-12-12T01:43:55.285Z,6.47
2018-12-12T01:46:35.678Z,7.97
2018-12-12T01:49:16.067Z,7.90
2018-12-12T01:51:43.596Z,9.53
2018-12-12T01:54:23.915Z,10.50
2018-12-12T01:57:04.360Z,7.30
2018-12-12T01:59:44.771Z,6.97
2018-12-12T02:02:25.216Z,6.77
2018-12-12T02:05:05.647Z,7.80
2018-12-12T02:07:33.156Z,7.20
2018-12-12T02:10:13.701Z,7.80
2018-12-12T02:12:53.989Z,9.00
2018-12-12T02:15:41.798Z,10.50
2018-12-12T02:23:53.825Z,7.30
2018-12-12T02:26:21.310Z,6.63
2018-12-12T02:29:01.233Z,5.57
2018-12-12T02:31:41.652Z,6.30
2018-12-12T02:34:09.153Z,5.73
2018-12-12T02:36:49.513Z,5.63
2018-12-12T02:39:29.900Z,5.73
2018-12-12T02:41:57.445Z,6.17
2018-12-12T02:44:24.934Z,6.30
2018-12-12T02:46:52.490Z,6.30
2018-12-12T02:49:32.819Z,7.73
2018-12-12T02:52:13.245Z,9.90
2018-12-12T02:54:53.683Z,9.83
2018-12-12T02:57:42.458Z,7.57
2018-12-12T03:49:00.251Z,6.07
2018-12-12T03:51:27.752Z,6.87
2018-12-12T03:53:55.288Z,6.50
2018-12-12T03:56:22.775Z,6.10
2018-12-12T03:59:08.890Z,6.37
2018-12-12T04:01:36.407Z,5.33
2018-12-12T04:07:02.680Z,5.87
2018-12-12T04:21:12.160Z,7.23
2018-12-12T04:23:52.593Z,5.50
2018-12-12T04:29:28.242Z,5.27
2018-12-12T04:31:55.829Z,5.37
2018-12-12T04:34:36.163Z,5.50
2018-12-12T04:37:16.585Z,6.43
2018-12-12T04:39:57.011Z,6.83
2018-12-12T04:42:37.480Z,6.97
2018-12-12T04:45:17.905Z,5.97
2018-12-12T04:47:58.342Z,6.00
2018-12-12T04:50:38.729Z,6.00
2018-12-12T04:53:19.188Z,6.40
2018-12-12T04:55:59.612Z,5.70
2018-12-12T05:01:32.311Z,5.83
2018-12-12T05:04:12.711Z,6.60
2018-12-12T05:06:53.204Z,5.67
2018-12-12T05:09:34.631Z,5.43
2018-12-12T05:12:15.052Z,6.00
2018-12-12T05:14:55.447Z,5.60
2018-12-12T05:17:35.849Z,6.00
2018-12-12T05:20:16.296Z,6.43
2018-12-12T05:22:56.748Z,7.23
2018-12-12T05:25:37.281Z,7.47
2018-12-12T05:28:18.492Z,9.47
2018-12-12T05:30:59.392Z,10.27
2018-12-12T05:33:39.434Z,9.20
2018-12-12T05:36:19.806Z,8.50
2018-12-12T05:39:00.238Z,8.87
2018-12-12T05:41:40.668Z,8.90
2018-12-12T05:44:21.233Z,8.03
2018-12-12T05:47:01.516Z,8.33
2018-12-12T05:49:41.966Z,8.53
2018-12-12T05:52:22.363Z,9.33
2018-12-12T05:55:02.779Z,9.33
2018-12-12T05:57:43.263Z,7.43
2018-12-12T06:00:23.617Z,7.27
2018-12-12T06:03:04.102Z,7.27
2018-12-12T06:05:44.509Z,8.97
2018-12-12T06:08:24.939Z,9.33
2018-12-12T06:13:58.529Z,8.43
2018-12-12T06:16:46.452Z,8.40
2018-12-12T06:33:47.639Z,9.37
2018-12-12T06:36:15.219Z,8.37
2018-12-12T06:38:42.788Z,8.13
2018-12-12T06:41:10.377Z,7.87
2018-12-12T06:43:51.070Z,6.87
2018-12-12T06:46:18.624Z,7.00
2018-12-12T06:48:46.191Z,6.73
2018-12-12T06:51:13.796Z,5.43
2018-12-12T06:53:41.361Z,6.17
2018-12-12T06:56:12.365Z,5.80
2018-12-12T06:58:44.982Z,5.73
2018-12-12T07:01:15.071Z,5.87
2018-12-12T07:03:42.886Z,6.20
2018-12-12T07:06:11.411Z,5.73
2018-12-12T07:08:40.285Z,5.33
2018-12-12T07:11:08.602Z,4.73
2018-12-12T07:13:36.410Z,7.30
2018-12-12T07:16:03.992Z,6.97
2018-12-12T07:18:31.745Z,6.63
2018-12-12T07:20:59.327Z,6.83
2018-12-12T07:23:26.910Z,8.97
2018-12-12T07:25:55.782Z,9.70
2018-12-12T07:28:23.621Z,10.83
2018-12-12T07:30:52.485Z,11.53
2018-12-12T07:33:20.527Z,13.50
2018-12-12T07:35:48.245Z,13.07
2018-12-12T07:38:15.909Z,10.90
2018-12-12T07:40:43.578Z,9.97
2018-12-12T07:43:11.477Z,9.37
2018-12-12T07:45:39.155Z,7.87
2018-12-12T07:48:06.809Z,7.80
2018-12-12T07:50:34.403Z,9.80
2018-12-12T07:53:03.004Z,6.70
2018-12-12T07:55:30.577Z,7.37
2018-12-12T07:57:58.147Z,6.13
2018-12-12T08:00:25.654Z,5.50
2018-12-12T08:02:53.208Z,4.37
2018-12-12T08:05:21.292Z,3.43
2018-12-12T08:07:48.843Z,4.10
2018-12-12T08:10:16.338Z,4.50
2018-12-12T08:12:43.829Z,3.90
2018-12-12T08:15:15.968Z,3.93
2018-12-12T08:17:44.695Z,4.40
2018-12-12T08:20:12.321Z,3.50
2018-12-12T08:22:40.925Z,26.10
2018-12-12T08:25:08.605Z,5.47
2018-12-12T08:27:36.236Z,5.40
2018-12-12T08:30:04.724Z,4.70
2018-12-12T08:32:32.459Z,6.17
2018-12-12T08:35:00.147Z,8.30
2018-12-12T08:37:27.724Z,3.87
2018-12-12T08:39:56.165Z,4.10
2018-12-12T08:42:23.699Z,3.57
2018-12-12T08:44:52.476Z,4.77
2018-12-12T08:47:20.939Z,2.83
2018-12-12T08:49:48.517Z,3.13
2018-12-12T08:52:17.923Z,3.97
2018-12-12T08:54:45.559Z,2.57
2018-12-12T08:57:13.332Z,3.47
2018-12-12T08:59:40.917Z,3.43
2018-12-12T09:02:08.552Z,3.87
2018-12-12T09:04:36.180Z,3.80
2018-12-12T09:07:03.861Z,6.17
2018-12-12T09:09:31.580Z,5.00
2018-12-12T09:12:00.038Z,3.37
2018-12-12T09:14:27.763Z,3.97
2018-12-12T09:16:55.432Z,3.53
2018-12-12T09:19:22.977Z,4.20
2018-12-12T09:21:51.254Z,4.50
2018-12-12T09:24:20.147Z,5.27
2018-12-12T09:26:48.337Z,5.57
2018-12-12T09:29:17.066Z,4.87
2018-12-12T09:31:44.749Z,4.53
2018-12-12T09:34:12.348Z,4.30
2018-12-12T09:36:41.335Z,6.10
2018-12-12T09:39:09.424Z,6.27
2018-12-12T09:41:37.478Z,4.77
2018-12-12T09:44:04.998Z,7.23
2018-12-12T09:46:32.665Z,7.00
2018-12-12T09:49:01.019Z,4.77
2018-12-12T09:51:29.964Z,4.80
2018-12-12T09:53:59.355Z,3.60
2018-12-12T09:56:27.368Z,4.00
2018-12-12T09:58:54.938Z,5.47
2018-12-12T10:01:22.598Z,4.13
2018-12-12T10:03:50.115Z,5.03
2018-12-12T10:06:18.390Z,4.90
2018-12-12T10:08:45.958Z,4.50
2018-12-12T10:11:14.054Z,4.30
2018-12-12T10:13:41.635Z,3.37
2018-12-12T10:16:09.163Z,3.00
2018-12-12T10:18:36.682Z,3.50
2018-12-12T10:21:04.197Z,2.57
2018-12-12T10:23:32.160Z,3.03
2018-12-12T10:26:00.339Z,3.10
2018-12-12T10:28:29.552Z,3.23
2018-12-12T10:30:57.104Z,3.97
2018-12-12T10:33:24.665Z,3.33
2018-12-12T10:35:52.162Z,3.93
2018-12-12T10:41:12.863Z,2.93
2018-12-12T10:43:40.474Z,6.63
2018-12-12T10:46:08.034Z,2.83
2018-12-12T10:48:35.611Z,3.20
2018-12-12T10:51:03.191Z,2.63
2018-12-12T10:53:31.800Z,2.77
2018-12-12T10:55:59.371Z,4.13
2018-12-12T10:58:26.984Z,2.47
2018-12-12T11:01:01.150Z,2.30
2018-12-12T11:03:35.628Z,3.00
2018-12-12T11:06:03.406Z,2.63
2018-12-12T11:08:31.051Z,3.47
2018-12-12T11:10:58.662Z,3.90
2018-12-12T11:13:26.192Z,3.70
2018-12-12T11:15:53.875Z,3.63
2018-12-12T11:18:21.470Z,3.03
2018-12-12T11:20:49.039Z,3.10
2018-12-12T11:23:16.668Z,3.73
2018-12-12T11:25:44.963Z,3.60
2018-12-12T11:28:12.829Z,5.60
2018-12-12T11:30:41.744Z,6.70
2018-12-12T11:33:09.359Z,4.17
2018-12-12T11:35:36.912Z,4.00
2018-12-12T11:38:05.670Z,4.07
2018-12-12T11:40:33.820Z,4.87
2018-12-12T11:43:01.425Z,4.23
2018-12-12T11:45:28.997Z,3.60
2018-12-12T11:47:56.758Z,3.57
2018-12-12T11:50:24.934Z,3.23
2018-12-12T11:52:54.281Z,4.00
2018-12-12T11:55:21.840Z,2.67
2018-12-12T11:57:49.487Z,5.00
2018-12-12T12:00:17.032Z,3.43
2018-12-12T12:02:44.602Z,4.27
2018-12-12T12:05:12.798Z,3.17
2018-12-12T12:07:42.214Z,2.10
2018-12-12T12:10:09.973Z,2.23
2018-12-12T12:12:38.026Z,2.10
2018-12-12T12:15:06.853Z,3.50
2018-12-12T12:17:37.400Z,5.50
2018-12-12T12:20:05.168Z,4.70
2018-12-12T12:22:35.557Z,2.60
2018-12-12T12:25:04.077Z,2.73
2018-12-12T12:27:32.734Z,2.07
2018-12-12T12:30:01.345Z,3.60
2018-12-12T12:32:28.881Z,4.50
2018-12-12T12:35:00.206Z,3.63
2018-12-12T12:37:29.367Z,3.13
2018-12-12T12:43:02.637Z,2.50
2018-12-12T12:45:44.494Z,2.87
2018-12-12T12:48:24.902Z,2.00
2018-12-12T12:51:05.453Z,2.93
2018-12-12T12:53:45.955Z,1.80
2018-12-12T12:56:18.169Z,1.57
2018-12-12T12:58:45.788Z,1.87
2018-12-12T13:01:13.668Z,2.70
2018-12-12T13:03:46.563Z,2.27
2018-12-12T13:06:14.919Z,1.77
2018-12-12T13:08:42.549Z,2.57
2018-12-12T13:11:14.784Z,2.10
2018-12-12T13:13:54.248Z,1.80
2018-12-12T13:16:21.839Z,2.10
2018-12-12T13:18:49.459Z,3.27
2018-12-12T13:21:17.009Z,4.50
2018-12-12T13:23:45.374Z,3.57
2018-12-12T13:26:14.351Z,4.90
2018-12-12T13:28:41.975Z,2.60
2018-12-12T13:31:09.571Z,2.73
2018-12-12T13:33:37.911Z,1.73
2018-12-12T13:36:06.019Z,2.30
2018-12-12T13:38:34.609Z,2.30
2018-12-12T13:41:02.715Z,2.50
2018-12-12T13:43:32.243Z,1.90
2018-12-12T13:46:00.314Z,2.00
2018-12-12T13:48:28.027Z,2.97
2018-12-12T13:50:55.575Z,1.83
2018-12-12T13:53:23.136Z,1.80
2018-12-12T13:55:51.820Z,2.60
2018-12-12T13:58:19.400Z,2.50
2018-12-12T14:00:47.569Z,2.43
2018-12-12T14:03:15.172Z,2.33
2018-12-12T14:05:42.733Z,2.60
2018-12-12T14:08:10.410Z,2.50
2018-12-12T14:10:37.959Z,2.40
2018-12-12T14:13:05.574Z,2.00
2018-12-12T14:15:34.103Z,2.60
2018-12-12T14:18:01.723Z,3.60
2018-12-12T14:20:29.252Z,3.20
2018-12-12T14:22:56.830Z,4.37
2018-12-12T14:25:25.581Z,5.47
2018-12-12T14:27:53.114Z,5.83
2018-12-12T14:30:20.996Z,5.70
2018-12-12T14:32:48.521Z,5.10
2018-12-12T14:35:16.173Z,6.47
2018-12-12T14:37:43.733Z,5.50
2018-12-12T14:40:11.315Z,5.57
2018-12-12T14:42:41.652Z,4.47
2018-12-12T14:45:09.832Z,4.37
2018-12-12T14:47:38.296Z,5.47
2018-12-12T14:50:05.877Z,7.57
2018-12-12T14:52:33.414Z,8.97
2018-12-12T14:55:00.947Z,8.33
2018-12-12T14:57:28.581Z,8.20
2018-12-12T14:59:56.157Z,6.33
2018-12-12T15:02:23.722Z,6.23
2018-12-12T15:04:51.305Z,5.67
2018-12-12T15:07:18.877Z,5.63
2018-12-12T15:09:46.416Z,6.87
2018-12-12T15:12:13.972Z,5.27
2018-12-12T15:14:41.485Z,4.77
2018-12-12T15:17:09.055Z,5.20
2018-12-12T15:19:36.574Z,5.13
2018-12-12T15:22:04.251Z,7.33
2018-12-12T15:24:31.764Z,15.23
2018-12-12T15:27:00.102Z,21.37
2018-12-12T15:29:27.621Z,20.40
2018-12-12T15:31:55.137Z,21.90
2018-12-12T15:34:22.664Z,21.13
2018-12-12T15:36:50.186Z,17.70
2018-12-12T15:39:17.743Z,20.10
2018-12-12T15:41:45.258Z,20.87
2018-12-12T15:44:12.816Z,22.87
2018-12-12T15:46:40.352Z,20.60
2018-12-12T15:49:07.874Z,11.80
2018-12-12T15:51:48.481Z,9.10
2018-12-12T15:54:22.132Z,9.40
2018-12-12T15:56:49.672Z,6.47
2018-12-12T15:59:17.197Z,7.73
2018-12-12T16:01:46.810Z,7.10
2018-12-12T16:04:27.185Z,8.00
2018-12-12T16:07:07.648Z,8.30
2018-12-12T16:09:49.122Z,11.40
2018-12-12T16:12:29.641Z,17.47
2018-12-12T16:15:10.802Z,28.97
2018-12-12T16:17:52.479Z,32.43
2018-12-12T16:20:33.114Z,33.93
2018-12-12T16:23:13.661Z,23.93
2018-12-12T16:25:54.088Z,18.30
2018-12-12T16:28:34.570Z,16.53
2018-12-12T16:31:16.183Z,15.87
2018-12-12T16:33:56.685Z,17.00
2018-12-12T16:36:37.269Z,16.47
2018-12-12T16:39:17.802Z,13.27
2018-12-12T16:41:58.963Z,10.20
2018-12-12T16:44:26.572Z,9.60
2018-12-12T16:46:54.178Z,9.70
2018-12-12T16:49:21.702Z,9.37
2018-12-12T16:51:50.180Z,8.70
2018-12-12T16:54:17.691Z,9.43
2018-12-12T16:56:45.270Z,9.80
2018-12-12T16:59:12.832Z,24.43
2018-12-12T17:01:41.170Z,21.83
2018-12-12T17:04:08.748Z,17.37
2018-12-12T17:06:36.282Z,15.80
2018-12-12T17:09:06.035Z,20.07
2018-12-12T17:11:34.630Z,19.60
2018-12-12T17:14:02.148Z,23.87
2018-12-12T17:16:29.653Z,25.77
2018-12-12T17:18:57.194Z,29.37
2018-12-12T17:21:25.400Z,25.17
2018-12-12T17:23:53.429Z,26.00
2018-12-12T17:26:21.276Z,22.80
2018-12-12T17:28:49.306Z,27.23
2018-12-12T17:31:16.871Z,29.23
2018-12-12T17:33:46.046Z,24.50
2018-12-12T17:36:13.624Z,28.00
2018-12-12T17:38:41.144Z,29.30
2018-12-12T17:41:09.670Z,19.67
2018-12-12T17:43:37.207Z,19.87
2018-12-12T17:46:04.778Z,21.30
2018-12-12T17:48:35.979Z,27.23
2018-12-12T17:51:03.548Z,25.23
2018-12-12T17:53:31.124Z,29.70
2018-12-12T17:55:58.717Z,24.57
2018-12-12T17:58:26.245Z,22.27
2018-12-12T18:00:53.866Z,21.27
2018-12-12T18:03:21.421Z,19.40
2018-12-12T18:05:50.078Z,20.93
2018-12-12T18:08:17.609Z,22.30
2018-12-12T18:10:45.143Z,25.30
2018-12-12T18:13:12.714Z,17.60
2018-12-12T18:15:40.351Z,18.13
2018-12-12T18:18:07.880Z,18.20
2018-12-12T18:20:36.539Z,18.57
2018-12-12T18:23:04.187Z,18.67
2018-12-12T18:25:32.257Z,20.20
2018-12-12T18:27:59.846Z,18.77
2018-12-12T18:30:27.435Z,19.67
2018-12-12T18:32:56.503Z,22.17
2018-12-12T18:35:24.207Z,24.23
2018-12-12T18:37:51.809Z,22.37
2018-12-12T18:40:19.367Z,28.63
2018-12-12T18:42:46.899Z,33.43
2018-12-12T18:45:15.001Z,47.00
2018-12-12T18:47:42.559Z,53.53
2018-12-12T18:50:10.136Z,38.10
2018-12-12T18:52:38.657Z,41.00
2018-12-12T18:55:06.175Z,23.63
2018-12-12T18:57:34.712Z,18.23
2018-12-12T19:00:03.186Z,14.43
2018-12-12T19:02:30.720Z,13.60
2018-12-12T19:04:58.276Z,11.27
2018-12-12T19:07:25.794Z,13.23
2018-12-12T19:09:56.152Z,10.73
2018-12-12T19:12:23.785Z,10.07
2018-12-12T19:15:01.547Z,9.90
2018-12-12T19:20:15.591Z,8.63
2018-12-12T19:22:43.335Z,7.90
2018-12-12T19:25:11.068Z,7.47
2018-12-12T19:27:39.622Z,8.17
2018-12-12T19:30:08.935Z,8.93
2018-12-12T19:32:36.566Z,13.40
2018-12-12T19:35:06.581Z,11.80
2018-12-12T19:37:34.109Z,10.73
2018-12-12T19:40:04.614Z,9.30
2018-12-12T19:45:49.186Z,9.07
2018-12-12T19:48:30.625Z,8.80
2018-12-12T19:51:12.320Z,11.27
2018-12-12T19:53:53.962Z,14.43
2018-12-12T19:56:36.366Z,13.63
2018-12-12T20:16:18.515Z,18.67
2018-12-12T20:18:46.924Z,19.93
2018-12-12T20:21:14.567Z,19.10
2018-12-12T20:23:42.200Z,16.73
2018-12-12T20:26:09.773Z,18.43
2018-12-12T20:28:37.327Z,14.40
2018-12-12T20:31:05.573Z,15.93
2018-12-12T20:33:33.147Z,14.73
2018-12-12T20:36:00.888Z,13.90
2018-12-12T20:38:28.492Z,12.33
2018-12-12T20:40:56.084Z,11.10
2018-12-12T20:43:23.784Z,11.17
2018-12-12T20:46:10.333Z,9.07
2018-12-12T21:17:20.462Z,11.17
2018-12-12T21:19:48.062Z,10.57
2018-12-12T21:22:16.088Z,10.20
2018-12-12T21:24:43.681Z,8.83
2018-12-12T21:43:03.708Z,13.13
2018-12-12T21:49:16.107Z,8.73
2018-12-12T21:55:38.855Z,9.73
2018-12-12T22:01:56.383Z,10.40
2018-12-12T22:08:08.321Z,6.43
2018-12-12T22:30:41.147Z,7.57
2018-12-12T22:56:16.781Z,5.27
2018-12-12T23:02:04.413Z,6.43
